This is the latest recevied weather packets stored in our database for station/object PY5TG-13. If no packets are shown the sender has not sent any weather packets the latest 10 day(s).
| Time | Temp. | Humidity | Pressure | Rain* | Wind** | Luminosity | Snow |
|---|---|---|---|---|---|---|---|
| 1778083812 | 27.22° C | 60% | 1016.3 hPa | 0 mm | - | 368 W/m² | - |
| 1778083211 | 27.78° C | 57% | 1016.3 hPa | 0 mm | - | 361 W/m² | - |
| 1778082612 | 27.22° C | 59% | 1016.6 hPa | 0 mm | - | 368 W/m² | - |
| 1778082011 | 26.67° C | 63% | 1016.9 hPa | 0 mm | - | 357 W/m² | - |
| 1778080813 | 25.56° C | 68% | 1018 hPa | 0 mm | - | 376 W/m² | - |
| 1778080520 | 25.56° C | 68% | 1018.2 hPa | 0 mm | - | 205 W/m² | - |
| 1778079671 | 26.11° C | - | - | 0 mm | - | - | - |
| 1778079606 | 26.11° C | 64% | 1018.3 hPa | 0 mm | - | 263 W/m² | - |
| 1778078411 | 26.11° C | 62% | 1018.2 hPa | 0 mm | - | 366 W/m² | - |
| 1778077812 | 26.67° C | 62% | 1018.2 hPa | 0 mm | - | 372 W/m² | - |
| 1778077213 | 26.11° C | 64% | 1018.4 hPa | 0 mm | - | 329 W/m² | - |
| 1778076613 | 26.11° C | 64% | 1018.5 hPa | 0 mm | - | 332 W/m² | - |
| 1778076012 | 25° C | 71% | 1019 hPa | 0 mm | - | 330 W/m² | - |
| 1778075411 | 25° C | 70% | 1019.1 hPa | 0 mm | - | 326 W/m² | - |
| 1778074810 | 25.56° C | 68% | 1019.1 hPa | 0 mm | - | 314 W/m² | - |
| 1778074271 | 25.56° C | 69% | 1019.2 hPa | 0 mm | - | 311 W/m² | - |
| 1778074207 | 25.56° C | 69% | 1019.2 hPa | 0 mm | - | 301 W/m² | - |
| 1778073611 | 25° C | 72% | 1019.5 hPa | 0 mm | - | 279 W/m² | - |
| 1778073011 | 25° C | 72% | 1019.6 hPa | 0 mm | - | 277 W/m² | - |
| 1778072413 | 24.44° C | 72% | 1019.8 hPa | 0 mm | - | 264 W/m² | - |
| 1778071811 | 24.44° C | 72% | 1019.8 hPa | 0 mm | - | 251 W/m² | - |
| 1778071211 | 23.89° C | 75% | 1020 hPa | 0 mm | - | 234 W/m² | - |
| 1778070671 | 23.89° C | 72% | 1019.9 hPa | 0 mm | - | 223 W/m² | - |
| 1778070606 | 23.89° C | 74% | 1019.8 hPa | 0 mm | - | 226 W/m² | - |
| 1778070010 | 23.33° C | 74% | 1020 hPa | 0 mm | - | 206 W/m² | - |
* Rain latest hour (hover to see other rain measurements)
** Current wind speed in m/s (hover to see current wind gust speed)